sensor_id;sensor_type;location;lat;lon;timestamp;temperature;humidity
29431;DHT22;16404;49.902;10.074;2024-02-04T00:00:49;11.60;74.00
29431;DHT22;16404;49.902;10.074;2024-02-04T00:03:34;11.60;73.90
29431;DHT22;16404;49.902;10.074;2024-02-04T00:06:19;11.50;74.70
29431;DHT22;16404;49.902;10.074;2024-02-04T00:09:03;11.50;74.00
29431;DHT22;16404;49.902;10.074;2024-02-04T00:11:48;11.50;74.10
29431;DHT22;16404;49.902;10.074;2024-02-04T00:14:33;11.50;74.00
29431;DHT22;16404;49.902;10.074;2024-02-04T00:17:17;11.50;73.70
29431;DHT22;16404;49.902;10.074;2024-02-04T00:20:03;11.50;74.10
29431;DHT22;16404;49.902;10.074;2024-02-04T00:22:49;11.60;74.00
29431;DHT22;16404;49.902;10.074;2024-02-04T00:25:34;11.60;73.80
29431;DHT22;16404;49.902;10.074;2024-02-04T00:28:19;11.70;73.50
29431;DHT22;16404;49.902;10.074;2024-02-04T00:31:04;11.70;73.30
29431;DHT22;16404;49.902;10.074;2024-02-04T00:33:49;11.70;73.30
29431;DHT22;16404;49.902;10.074;2024-02-04T00:36:34;11.70;73.20
29431;DHT22;16404;49.902;10.074;2024-02-04T00:39:18;11.70;73.20
29431;DHT22;16404;49.902;10.074;2024-02-04T00:42:03;11.70;73.20
29431;DHT22;16404;49.902;10.074;2024-02-04T00:44:48;11.70;73.40
29431;DHT22;16404;49.902;10.074;2024-02-04T00:47:32;11.70;73.30
29431;DHT22;16404;49.902;10.074;2024-02-04T00:50:17;11.70;73.30
29431;DHT22;16404;49.902;10.074;2024-02-04T00:53:02;11.70;73.40
29431;DHT22;16404;49.902;10.074;2024-02-04T00:55:47;11.70;73.20
29431;DHT22;16404;49.902;10.074;2024-02-04T00:58:31;11.70;73.10
29431;DHT22;16404;49.902;10.074;2024-02-04T01:01:16;11.70;73.20
29431;DHT22;16404;49.902;10.074;2024-02-04T01:04:01;11.70;73.20
29431;DHT22;16404;49.902;10.074;2024-02-04T01:06:45;11.80;73.00
29431;DHT22;16404;49.902;10.074;2024-02-04T01:09:30;11.80;72.90
29431;DHT22;16404;49.902;10.074;2024-02-04T01:12:15;11.80;72.80
29431;DHT22;16404;49.902;10.074;2024-02-04T01:14:59;11.80;72.80
29431;DHT22;16404;49.902;10.074;2024-02-04T01:17:44;11.80;72.80
29431;DHT22;16404;49.902;10.074;2024-02-04T01:20:29;11.80;72.80
29431;DHT22;16404;49.902;10.074;2024-02-04T01:23:14;11.80;73.40
29431;DHT22;16404;49.902;10.074;2024-02-04T01:25:58;11.90;72.70
29431;DHT22;16404;49.902;10.074;2024-02-04T01:28:43;11.80;72.70
29431;DHT22;16404;49.902;10.074;2024-02-04T01:31:28;11.90;72.70
29431;DHT22;16404;49.902;10.074;2024-02-04T01:34:12;11.80;72.60
29431;DHT22;16404;49.902;10.074;2024-02-04T01:36:57;11.80;72.70
29431;DHT22;16404;49.902;10.074;2024-02-04T01:39:41;11.80;72.80
29431;DHT22;16404;49.902;10.074;2024-02-04T01:42:26;11.80;72.80
29431;DHT22;16404;49.902;10.074;2024-02-04T01:45:11;11.90;72.80
29431;DHT22;16404;49.902;10.074;2024-02-04T01:47:55;11.80;72.60
29431;DHT22;16404;49.902;10.074;2024-02-04T01:50:40;11.80;72.70
29431;DHT22;16404;49.902;10.074;2024-02-04T01:53:26;11.70;72.80
29431;DHT22;16404;49.902;10.074;2024-02-04T01:56:11;11.80;72.80
29431;DHT22;16404;49.902;10.074;2024-02-04T01:58:57;11.80;72.80
29431;DHT22;16404;49.902;10.074;2024-02-04T02:01:44;11.80;72.70
29431;DHT22;16404;49.902;10.074;2024-02-04T02:04:28;11.80;72.70
29431;DHT22;16404;49.902;10.074;2024-02-04T02:07:13;11.80;72.70
29431;DHT22;16404;49.902;10.074;2024-02-04T02:10:00;11.80;72.60
29431;DHT22;16404;49.902;10.074;2024-02-04T02:16:15;11.80;72.90
29431;DHT22;16404;49.902;10.074;2024-02-04T02:22:39;11.80;72.90
29431;DHT22;16404;49.902;10.074;2024-02-04T02:25:25;11.80;72.60
29431;DHT22;16404;49.902;10.074;2024-02-04T02:28:10;11.80;72.60
29431;DHT22;16404;49.902;10.074;2024-02-04T02:30:55;11.80;72.60
29431;DHT22;16404;49.902;10.074;2024-02-04T02:33:40;11.80;72.60
29431;DHT22;16404;49.902;10.074;2024-02-04T02:36:26;11.90;72.50
29431;DHT22;16404;49.902;10.074;2024-02-04T02:39:23;11.90;72.60
29431;DHT22;16404;49.902;10.074;2024-02-04T02:42:10;11.90;72.40
29431;DHT22;16404;49.902;10.074;2024-02-04T02:44:56;12.00;72.20
29431;DHT22;16404;49.902;10.074;2024-02-04T02:47:42;12.00;72.20
29431;DHT22;16404;49.902;10.074;2024-02-04T02:50:28;11.90;72.00
29431;DHT22;16404;49.902;10.074;2024-02-04T02:53:12;11.90;72.20
29431;DHT22;16404;49.902;10.074;2024-02-04T02:55:57;11.90;72.30
29431;DHT22;16404;49.902;10.074;2024-02-04T02:58:42;11.80;72.20
29431;DHT22;16404;49.902;10.074;2024-02-04T03:01:27;11.80;72.40
29431;DHT22;16404;49.902;10.074;2024-02-04T03:04:11;11.80;72.40
29431;DHT22;16404;49.902;10.074;2024-02-04T03:06:56;11.80;72.40
29431;DHT22;16404;49.902;10.074;2024-02-04T03:09:41;11.80;72.40
29431;DHT22;16404;49.902;10.074;2024-02-04T03:12:25;11.80;72.40
29431;DHT22;16404;49.902;10.074;2024-02-04T03:15:10;11.80;72.40
29431;DHT22;16404;49.902;10.074;2024-02-04T03:17:55;11.80;72.40
29431;DHT22;16404;49.902;10.074;2024-02-04T03:20:39;11.80;72.50
29431;DHT22;16404;49.902;10.074;2024-02-04T03:23:24;11.80;72.40
29431;DHT22;16404;49.902;10.074;2024-02-04T03:26:09;11.80;72.20
29431;DHT22;16404;49.902;10.074;2024-02-04T03:28:54;11.80;72.10
29431;DHT22;16404;49.902;10.074;2024-02-04T03:31:39;11.80;72.20
29431;DHT22;16404;49.902;10.074;2024-02-04T03:34:24;11.90;72.20
29431;DHT22;16404;49.902;10.074;2024-02-04T03:37:08;11.90;72.10
29431;DHT22;16404;49.902;10.074;2024-02-04T03:39:53;11.90;72.00
29431;DHT22;16404;49.902;10.074;2024-02-04T03:42:38;11.90;71.90
29431;DHT22;16404;49.902;10.074;2024-02-04T03:45:22;11.90;72.00
29431;DHT22;16404;49.902;10.074;2024-02-04T03:48:07;12.00;72.00
29431;DHT22;16404;49.902;10.074;2024-02-04T03:50:52;12.00;71.90
29431;DHT22;16404;49.902;10.074;2024-02-04T03:53:36;12.00;71.60
29431;DHT22;16404;49.902;10.074;2024-02-04T03:56:21;12.00;71.60
29431;DHT22;16404;49.902;10.074;2024-02-04T03:59:08;11.90;71.70
29431;DHT22;16404;49.902;10.074;2024-02-04T04:01:53;11.90;71.80
29431;DHT22;16404;49.902;10.074;2024-02-04T04:04:40;11.90;72.00
29431;DHT22;16404;49.902;10.074;2024-02-04T04:07:26;11.90;72.00
29431;DHT22;16404;49.902;10.074;2024-02-04T04:10:10;11.90;72.10
29431;DHT22;16404;49.902;10.074;2024-02-04T04:12:55;11.90;72.00
29431;DHT22;16404;49.902;10.074;2024-02-04T04:15:39;12.00;72.00
29431;DHT22;16404;49.902;10.074;2024-02-04T04:18:26;11.90;71.90
29431;DHT22;16404;49.902;10.074;2024-02-04T04:21:11;12.00;71.90
29431;DHT22;16404;49.902;10.074;2024-02-04T04:23:55;12.00;72.00
29431;DHT22;16404;49.902;10.074;2024-02-04T04:26:40;11.90;72.50
29431;DHT22;16404;49.902;10.074;2024-02-04T04:29:24;12.00;72.60
29431;DHT22;16404;49.902;10.074;2024-02-04T04:32:10;11.90;71.80
29431;DHT22;16404;49.902;10.074;2024-02-04T04:34:55;11.90;72.00
29431;DHT22;16404;49.902;10.074;2024-02-04T04:37:40;11.80;72.30
29431;DHT22;16404;49.902;10.074;2024-02-04T04:40:24;11.80;72.20
29431;DHT22;16404;49.902;10.074;2024-02-04T04:43:09;11.70;72.20
29431;DHT22;16404;49.902;10.074;2024-02-04T04:45:54;11.70;72.50
29431;DHT22;16404;49.902;10.074;2024-02-04T04:48:39;11.60;72.80
29431;DHT22;16404;49.902;10.074;2024-02-04T04:51:23;11.60;72.80
29431;DHT22;16404;49.902;10.074;2024-02-04T04:54:08;11.60;72.80
29431;DHT22;16404;49.902;10.074;2024-02-04T04:56:52;11.60;73.00
29431;DHT22;16404;49.902;10.074;2024-02-04T04:59:37;11.50;73.20
29431;DHT22;16404;49.902;10.074;2024-02-04T05:02:22;11.50;73.50
29431;DHT22;16404;49.902;10.074;2024-02-04T05:05:06;11.50;73.60
29431;DHT22;16404;49.902;10.074;2024-02-04T05:07:51;11.50;73.70
29431;DHT22;16404;49.902;10.074;2024-02-04T05:10:35;11.50;73.50
29431;DHT22;16404;49.902;10.074;2024-02-04T05:13:20;11.50;73.50
29431;DHT22;16404;49.902;10.074;2024-02-04T05:16:05;11.60;73.60
29431;DHT22;16404;49.902;10.074;2024-02-04T05:18:49;11.60;73.40
29431;DHT22;16404;49.902;10.074;2024-02-04T05:21:38;11.60;73.30
29431;DHT22;16404;49.902;10.074;2024-02-04T05:24:23;11.60;73.20
29431;DHT22;16404;49.902;10.074;2024-02-04T05:27:08;11.60;73.20
29431;DHT22;16404;49.902;10.074;2024-02-04T05:29:52;11.60;73.30
29431;DHT22;16404;49.902;10.074;2024-02-04T05:32:37;11.60;73.30
29431;DHT22;16404;49.902;10.074;2024-02-04T05:35:21;11.60;73.30
29431;DHT22;16404;49.902;10.074;2024-02-04T05:38:06;11.60;73.20
29431;DHT22;16404;49.902;10.074;2024-02-04T05:40:51;11.60;73.10
29431;DHT22;16404;49.902;10.074;2024-02-04T05:43:35;11.50;73.20
29431;DHT22;16404;49.902;10.074;2024-02-04T05:46:20;11.50;73.30
29431;DHT22;16404;49.902;10.074;2024-02-04T05:49:05;11.50;73.20
29431;DHT22;16404;49.902;10.074;2024-02-04T05:51:49;11.50;73.10
29431;DHT22;16404;49.902;10.074;2024-02-04T05:54:38;11.40;73.20
29431;DHT22;16404;49.902;10.074;2024-02-04T05:57:23;11.40;73.50
29431;DHT22;16404;49.902;10.074;2024-02-04T06:00:09;11.30;73.40
29431;DHT22;16404;49.902;10.074;2024-02-04T06:02:57;11.30;73.70
29431;DHT22;16404;49.902;10.074;2024-02-04T06:05:41;11.30;73.70
29431;DHT22;16404;49.902;10.074;2024-02-04T06:08:26;11.30;73.60
29431;DHT22;16404;49.902;10.074;2024-02-04T06:11:12;11.30;73.60
29431;DHT22;16404;49.902;10.074;2024-02-04T06:13:56;11.30;73.80
29431;DHT22;16404;49.902;10.074;2024-02-04T06:16:41;11.20;73.70
29431;DHT22;16404;49.902;10.074;2024-02-04T06:19:25;11.20;73.80
29431;DHT22;16404;49.902;10.074;2024-02-04T06:22:10;11.20;74.00
29431;DHT22;16404;49.902;10.074;2024-02-04T06:24:55;11.30;73.90
29431;DHT22;16404;49.902;10.074;2024-02-04T06:27:40;11.30;73.90
29431;DHT22;16404;49.902;10.074;2024-02-04T06:30:24;11.30;73.80
29431;DHT22;16404;49.902;10.074;2024-02-04T06:33:08;11.30;73.90
29431;DHT22;16404;49.902;10.074;2024-02-04T06:35:53;11.30;73.90
29431;DHT22;16404;49.902;10.074;2024-02-04T06:38:37;11.30;73.90
29431;DHT22;16404;49.902;10.074;2024-02-04T06:41:22;11.40;73.90
29431;DHT22;16404;49.902;10.074;2024-02-04T06:44:07;11.40;73.90
29431;DHT22;16404;49.902;10.074;2024-02-04T06:46:51;11.40;73.80
29431;DHT22;16404;49.902;10.074;2024-02-04T06:49:36;11.40;73.80
29431;DHT22;16404;49.902;10.074;2024-02-04T06:52:21;11.50;73.80
29431;DHT22;16404;49.902;10.074;2024-02-04T06:55:06;11.60;73.60
29431;DHT22;16404;49.902;10.074;2024-02-04T06:57:51;11.60;73.30
29431;DHT22;16404;49.902;10.074;2024-02-04T07:00:35;11.70;73.10
29431;DHT22;16404;49.902;10.074;2024-02-04T07:03:19;11.70;72.50
29431;DHT22;16404;49.902;10.074;2024-02-04T07:06:04;11.70;72.80
29431;DHT22;16404;49.902;10.074;2024-02-04T07:08:49;11.70;72.90
29431;DHT22;16404;49.902;10.074;2024-02-04T07:11:33;11.60;73.00
29431;DHT22;16404;49.902;10.074;2024-02-04T07:14:18;11.60;73.10
29431;DHT22;16404;49.902;10.074;2024-02-04T07:17:03;11.60;73.40
29431;DHT22;16404;49.902;10.074;2024-02-04T07:19:47;11.60;73.40
29431;DHT22;16404;49.902;10.074;2024-02-04T07:22:32;11.70;73.30
29431;DHT22;16404;49.902;10.074;2024-02-04T07:25:17;11.70;73.10
29431;DHT22;16404;49.902;10.074;2024-02-04T07:28:03;11.70;73.00
29431;DHT22;16404;49.902;10.074;2024-02-04T07:30:47;11.70;73.30
29431;DHT22;16404;49.902;10.074;2024-02-04T07:33:31;11.70;73.40
29431;DHT22;16404;49.902;10.074;2024-02-04T07:36:16;11.60;73.50
29431;DHT22;16404;49.902;10.074;2024-02-04T07:39:01;11.50;73.80
29431;DHT22;16404;49.902;10.074;2024-02-04T07:41:48;11.60;73.60
29431;DHT22;16404;49.902;10.074;2024-02-04T07:44:33;11.60;73.50
29431;DHT22;16404;49.902;10.074;2024-02-04T07:47:18;11.70;73.50
29431;DHT22;16404;49.902;10.074;2024-02-04T07:50:03;11.70;73.50
29431;DHT22;16404;49.902;10.074;2024-02-04T07:52:48;11.70;73.50
29431;DHT22;16404;49.902;10.074;2024-02-04T07:55:32;11.70;73.50
29431;DHT22;16404;49.902;10.074;2024-02-04T07:58:17;11.70;73.70
29431;DHT22;16404;49.902;10.074;2024-02-04T08:01:02;11.70;73.80
29431;DHT22;16404;49.902;10.074;2024-02-04T08:03:47;11.70;73.80
29431;DHT22;16404;49.902;10.074;2024-02-04T08:06:32;11.60;73.90
29431;DHT22;16404;49.902;10.074;2024-02-04T08:09:18;11.70;73.90
29431;DHT22;16404;49.902;10.074;2024-02-04T08:12:03;11.70;73.90
29431;DHT22;16404;49.902;10.074;2024-02-04T08:14:48;11.70;74.00
29431;DHT22;16404;49.902;10.074;2024-02-04T08:17:32;11.70;74.00
29431;DHT22;16404;49.902;10.074;2024-02-04T08:20:18;11.70;74.10
29431;DHT22;16404;49.902;10.074;2024-02-04T08:23:03;11.70;74.30
29431;DHT22;16404;49.902;10.074;2024-02-04T08:25:47;11.70;74.50
29431;DHT22;16404;49.902;10.074;2024-02-04T08:28:33;11.70;74.50
29431;DHT22;16404;49.902;10.074;2024-02-04T08:31:18;11.90;74.00
29431;DHT22;16404;49.902;10.074;2024-02-04T08:34:03;12.00;73.30
29431;DHT22;16404;49.902;10.074;2024-02-04T08:36:47;12.10;73.10
29431;DHT22;16404;49.902;10.074;2024-02-04T08:39:32;12.00;73.00
29431;DHT22;16404;49.902;10.074;2024-02-04T08:42:17;11.80;73.30
29431;DHT22;16404;49.902;10.074;2024-02-04T08:45:01;11.70;73.80
29431;DHT22;16404;49.902;10.074;2024-02-04T08:47:46;11.70;74.10
29431;DHT22;16404;49.902;10.074;2024-02-04T08:50:30;11.70;74.20
29431;DHT22;16404;49.902;10.074;2024-02-04T08:53:15;11.70;74.20
29431;DHT22;16404;49.902;10.074;2024-02-04T08:56:00;11.70;74.30
29431;DHT22;16404;49.902;10.074;2024-02-04T08:58:45;11.70;74.50
29431;DHT22;16404;49.902;10.074;2024-02-04T09:01:29;11.70;74.60
29431;DHT22;16404;49.902;10.074;2024-02-04T09:04:14;11.70;74.50
29431;DHT22;16404;49.902;10.074;2024-02-04T09:06:58;11.70;74.30
29431;DHT22;16404;49.902;10.074;2024-02-04T09:09:43;11.70;74.70
29431;DHT22;16404;49.902;10.074;2024-02-04T09:12:28;11.70;74.80
29431;DHT22;16404;49.902;10.074;2024-02-04T09:15:12;11.60;74.90
29431;DHT22;16404;49.902;10.074;2024-02-04T09:17:57;11.60;75.10
29431;DHT22;16404;49.902;10.074;2024-02-04T09:20:41;11.70;75.00
29431;DHT22;16404;49.902;10.074;2024-02-04T09:23:26;11.80;74.70
29431;DHT22;16404;49.902;10.074;2024-02-04T09:26:11;11.80;74.60
29431;DHT22;16404;49.902;10.074;2024-02-04T09:28:55;11.90;74.30
29431;DHT22;16404;49.902;10.074;2024-02-04T09:31:40;12.00;74.20
29431;DHT22;16404;49.902;10.074;2024-02-04T09:34:24;11.90;74.70
29431;DHT22;16404;49.902;10.074;2024-02-04T09:37:09;12.00;74.00
29431;DHT22;16404;49.902;10.074;2024-02-04T09:39:54;12.10;73.80
29431;DHT22;16404;49.902;10.074;2024-02-04T09:42:38;12.10;73.60
29431;DHT22;16404;49.902;10.074;2024-02-04T09:45:23;12.20;73.50
29431;DHT22;16404;49.902;10.074;2024-02-04T09:48:08;12.20;74.00
29431;DHT22;16404;49.902;10.074;2024-02-04T09:50:53;12.20;73.10
29431;DHT22;16404;49.902;10.074;2024-02-04T09:53:43;12.20;73.10
29431;DHT22;16404;49.902;10.074;2024-02-04T09:56:28;12.20;73.20
29431;DHT22;16404;49.902;10.074;2024-02-04T09:59:14;12.20;73.10
29431;DHT22;16404;49.902;10.074;2024-02-04T10:01:59;12.20;73.10
29431;DHT22;16404;49.902;10.074;2024-02-04T10:04:43;12.20;73.20
29431;DHT22;16404;49.902;10.074;2024-02-04T10:07:28;12.30;73.20
29431;DHT22;16404;49.902;10.074;2024-02-04T10:10:13;12.20;73.20
29431;DHT22;16404;49.902;10.074;2024-02-04T10:12:57;12.20;73.20
29431;DHT22;16404;49.902;10.074;2024-02-04T10:15:42;12.30;73.20
29431;DHT22;16404;49.902;10.074;2024-02-04T10:18:27;12.30;73.10
29431;DHT22;16404;49.902;10.074;2024-02-04T10:21:20;12.30;72.90
29431;DHT22;16404;49.902;10.074;2024-02-04T10:24:06;12.30;73.10
29431;DHT22;16404;49.902;10.074;2024-02-04T10:26:51;12.30;72.90
29431;DHT22;16404;49.902;10.074;2024-02-04T10:29:36;12.40;72.70
29431;DHT22;16404;49.902;10.074;2024-02-04T10:32:22;12.40;72.50
29431;DHT22;16404;49.902;10.074;2024-02-04T10:35:08;12.30;72.60
29431;DHT22;16404;49.902;10.074;2024-02-04T10:37:53;12.40;72.70
29431;DHT22;16404;49.902;10.074;2024-02-04T10:40:37;12.40;72.60
29431;DHT22;16404;49.902;10.074;2024-02-04T10:43:22;12.40;72.50
29431;DHT22;16404;49.902;10.074;2024-02-04T10:46:18;12.40;72.50
29431;DHT22;16404;49.902;10.074;2024-02-04T10:49:03;12.30;72.80
29431;DHT22;16404;49.902;10.074;2024-02-04T10:51:56;12.40;72.80
29431;DHT22;16404;49.902;10.074;2024-02-04T10:54:43;12.40;72.90
29431;DHT22;16404;49.902;10.074;2024-02-04T10:57:28;12.40;72.80
29431;DHT22;16404;49.902;10.074;2024-02-04T11:00:15;12.50;72.80
29431;DHT22;16404;49.902;10.074;2024-02-04T11:03:02;12.50;72.80
29431;DHT22;16404;49.902;10.074;2024-02-04T11:05:49;12.50;72.80
29431;DHT22;16404;49.902;10.074;2024-02-04T11:08:35;12.50;72.70
29431;DHT22;16404;49.902;10.074;2024-02-04T11:11:20;12.60;72.30
29431;DHT22;16404;49.902;10.074;2024-02-04T11:14:13;12.60;72.10
29431;DHT22;16404;49.902;10.074;2024-02-04T11:20:47;12.50;72.00
29431;DHT22;16404;49.902;10.074;2024-02-04T11:26:51;12.50;72.00
29431;DHT22;16404;49.902;10.074;2024-02-04T11:29:35;12.50;71.90
29431;DHT22;16404;49.902;10.074;2024-02-04T11:32:20;12.50;71.80
29431;DHT22;16404;49.902;10.074;2024-02-04T11:35:05;12.50;71.70
29431;DHT22;16404;49.902;10.074;2024-02-04T11:37:53;12.60;71.70
29431;DHT22;16404;49.902;10.074;2024-02-04T11:40:38;12.60;71.60
29431;DHT22;16404;49.902;10.074;2024-02-04T11:43:24;12.70;71.60
29431;DHT22;16404;49.902;10.074;2024-02-04T11:46:16;12.70;71.20
29431;DHT22;16404;49.902;10.074;2024-02-04T11:49:02;12.60;71.20
29431;DHT22;16404;49.902;10.074;2024-02-04T11:51:51;12.70;71.00
29431;DHT22;16404;49.902;10.074;2024-02-04T11:54:36;12.60;70.90
29431;DHT22;16404;49.902;10.074;2024-02-04T11:57:21;12.70;70.90
29431;DHT22;16404;49.902;10.074;2024-02-04T12:00:07;12.70;70.70
29431;DHT22;16404;49.902;10.074;2024-02-04T12:03:07;12.80;70.60
29431;DHT22;16404;49.902;10.074;2024-02-04T12:05:52;12.80;70.70
29431;DHT22;16404;49.902;10.074;2024-02-04T12:08:37;12.80;70.40
29431;DHT22;16404;49.902;10.074;2024-02-04T12:11:23;12.80;70.50
29431;DHT22;16404;49.902;10.074;2024-02-04T12:14:08;12.80;70.30
29431;DHT22;16404;49.902;10.074;2024-02-04T12:16:54;12.80;70.20
29431;DHT22;16404;49.902;10.074;2024-02-04T12:19:38;12.80;70.40
29431;DHT22;16404;49.902;10.074;2024-02-04T12:22:23;12.80;70.40
29431;DHT22;16404;49.902;10.074;2024-02-04T12:25:08;12.80;70.60
29431;DHT22;16404;49.902;10.074;2024-02-04T12:27:52;12.70;70.70
29431;DHT22;16404;49.902;10.074;2024-02-04T12:30:37;12.70;70.80
29431;DHT22;16404;49.902;10.074;2024-02-04T12:33:21;12.70;70.60
29431;DHT22;16404;49.902;10.074;2024-02-04T12:36:07;12.70;70.50
29431;DHT22;16404;49.902;10.074;2024-02-04T12:38:57;12.60;70.60
29431;DHT22;16404;49.902;10.074;2024-02-04T12:41:41;12.70;70.70
29431;DHT22;16404;49.902;10.074;2024-02-04T12:44:26;12.70;70.60
29431;DHT22;16404;49.902;10.074;2024-02-04T12:47:11;12.70;70.60
29431;DHT22;16404;49.902;10.074;2024-02-04T12:49:58;12.80;70.40
29431;DHT22;16404;49.902;10.074;2024-02-04T12:52:45;12.80;70.40
29431;DHT22;16404;49.902;10.074;2024-02-04T12:55:30;12.80;70.20
29431;DHT22;16404;49.902;10.074;2024-02-04T12:58:17;12.80;70.10
29431;DHT22;16404;49.902;10.074;2024-02-04T13:01:02;12.90;70.10
29431;DHT22;16404;49.902;10.074;2024-02-04T13:03:49;12.80;70.00
29431;DHT22;16404;49.902;10.074;2024-02-04T13:06:38;12.90;70.10
29431;DHT22;16404;49.902;10.074;2024-02-04T13:09:23;12.90;69.90
29431;DHT22;16404;49.902;10.074;2024-02-04T13:12:09;12.90;69.80
29431;DHT22;16404;49.902;10.074;2024-02-04T13:14:54;12.90;69.80
29431;DHT22;16404;49.902;10.074;2024-02-04T13:17:38;12.90;69.80
29431;DHT22;16404;49.902;10.074;2024-02-04T13:20:23;12.80;70.00
29431;DHT22;16404;49.902;10.074;2024-02-04T13:23:11;12.90;70.20
29431;DHT22;16404;49.902;10.074;2024-02-04T13:25:55;12.80;70.10
29431;DHT22;16404;49.902;10.074;2024-02-04T13:28:40;12.80;70.20
29431;DHT22;16404;49.902;10.074;2024-02-04T13:31:25;12.80;70.40
29431;DHT22;16404;49.902;10.074;2024-02-04T13:34:09;12.90;70.40
29431;DHT22;16404;49.902;10.074;2024-02-04T13:36:54;12.90;70.50
29431;DHT22;16404;49.902;10.074;2024-02-04T13:39:38;12.90;70.70
29431;DHT22;16404;49.902;10.074;2024-02-04T13:42:23;12.90;70.60
29431;DHT22;16404;49.902;10.074;2024-02-04T13:45:08;12.80;70.80
29431;DHT22;16404;49.902;10.074;2024-02-04T13:47:52;12.80;70.90
29431;DHT22;16404;49.902;10.074;2024-02-04T13:50:37;12.80;70.90
29431;DHT22;16404;49.902;10.074;2024-02-04T13:53:22;12.90;70.90
29431;DHT22;16404;49.902;10.074;2024-02-04T13:56:07;12.80;70.90
29431;DHT22;16404;49.902;10.074;2024-02-04T13:58:52;12.90;71.00
29431;DHT22;16404;49.902;10.074;2024-02-04T14:01:36;12.90;70.90
29431;DHT22;16404;49.902;10.074;2024-02-04T14:04:21;12.80;71.00
29431;DHT22;16404;49.902;10.074;2024-02-04T14:07:06;12.90;70.90
29431;DHT22;16404;49.902;10.074;2024-02-04T14:09:50;12.90;70.80
29431;DHT22;16404;49.902;10.074;2024-02-04T14:12:35;12.90;70.80
29431;DHT22;16404;49.902;10.074;2024-02-04T14:15:20;12.90;70.90
29431;DHT22;16404;49.902;10.074;2024-02-04T14:18:05;12.80;70.90
29431;DHT22;16404;49.902;10.074;2024-02-04T14:20:50;12.80;71.00
29431;DHT22;16404;49.902;10.074;2024-02-04T14:23:34;12.80;70.90
29431;DHT22;16404;49.902;10.074;2024-02-04T14:26:20;12.80;71.10
29431;DHT22;16404;49.902;10.074;2024-02-04T14:29:08;12.80;71.20
29431;DHT22;16404;49.902;10.074;2024-02-04T14:31:53;12.80;71.20
29431;DHT22;16404;49.902;10.074;2024-02-04T14:34:37;12.80;71.00
29431;DHT22;16404;49.902;10.074;2024-02-04T14:37:22;12.80;70.90
29431;DHT22;16404;49.902;10.074;2024-02-04T14:40:07;12.90;70.90
29431;DHT22;16404;49.902;10.074;2024-02-04T14:42:52;12.90;70.90
29431;DHT22;16404;49.902;10.074;2024-02-04T14:45:36;12.90;70.80
29431;DHT22;16404;49.902;10.074;2024-02-04T14:48:21;12.80;70.60
29431;DHT22;16404;49.902;10.074;2024-02-04T14:51:05;12.80;70.90
29431;DHT22;16404;49.902;10.074;2024-02-04T14:53:50;12.70;71.00
29431;DHT22;16404;49.902;10.074;2024-02-04T14:56:41;12.80;71.60
29431;DHT22;16404;49.902;10.074;2024-02-04T14:59:26;12.70;70.80
29431;DHT22;16404;49.902;10.074;2024-02-04T15:02:10;12.70;70.90
29431;DHT22;16404;49.902;10.074;2024-02-04T15:04:55;12.70;70.80
29431;DHT22;16404;49.902;10.074;2024-02-04T15:07:39;12.70;70.70
29431;DHT22;16404;49.902;10.074;2024-02-04T15:10:24;12.80;70.60
29431;DHT22;16404;49.902;10.074;2024-02-04T15:13:09;12.70;70.60
29431;DHT22;16404;49.902;10.074;2024-02-04T15:15:54;12.70;70.50
29431;DHT22;16404;49.902;10.074;2024-02-04T15:18:38;12.80;70.50
29431;DHT22;16404;49.902;10.074;2024-02-04T15:21:23;12.80;70.40
29431;DHT22;16404;49.902;10.074;2024-02-04T15:24:09;12.80;70.30
29431;DHT22;16404;49.902;10.074;2024-02-04T15:26:54;12.70;70.30
29431;DHT22;16404;49.902;10.074;2024-02-04T15:29:38;12.70;70.50
29431;DHT22;16404;49.902;10.074;2024-02-04T15:32:23;12.80;70.50
29431;DHT22;16404;49.902;10.074;2024-02-04T15:35:08;12.70;70.40
29431;DHT22;16404;49.902;10.074;2024-02-04T15:37:53;12.70;70.40
29431;DHT22;16404;49.902;10.074;2024-02-04T15:40:38;12.70;70.70
29431;DHT22;16404;49.902;10.074;2024-02-04T15:43:22;12.70;70.70
29431;DHT22;16404;49.902;10.074;2024-02-04T15:46:08;12.70;70.70
29431;DHT22;16404;49.902;10.074;2024-02-04T15:48:55;12.70;70.60
29431;DHT22;16404;49.902;10.074;2024-02-04T15:51:41;12.80;70.40
29431;DHT22;16404;49.902;10.074;2024-02-04T15:54:26;12.90;70.40
29431;DHT22;16404;49.902;10.074;2024-02-04T15:57:14;12.90;70.40
29431;DHT22;16404;49.902;10.074;2024-02-04T16:00:03;12.90;70.40
29431;DHT22;16404;49.902;10.074;2024-02-04T16:03:02;12.90;70.40
29431;DHT22;16404;49.902;10.074;2024-02-04T16:05:47;12.80;70.30
29431;DHT22;16404;49.902;10.074;2024-02-04T16:08:31;12.80;70.40
29431;DHT22;16404;49.902;10.074;2024-02-04T16:11:18;12.80;70.40
29431;DHT22;16404;49.902;10.074;2024-02-04T16:14:04;12.80;70.40
29431;DHT22;16404;49.902;10.074;2024-02-04T16:16:55;12.80;70.40
29431;DHT22;16404;49.902;10.074;2024-02-04T16:22:29;12.70;70.60
29431;DHT22;16404;49.902;10.074;2024-02-04T16:25:16;12.70;70.20
29431;DHT22;16404;49.902;10.074;2024-02-04T16:28:01;12.70;70.50
29431;DHT22;16404;49.902;10.074;2024-02-04T16:30:46;12.80;70.50
29431;DHT22;16404;49.902;10.074;2024-02-04T16:33:32;12.80;70.50
29431;DHT22;16404;49.902;10.074;2024-02-04T16:36:17;12.70;70.50
29431;DHT22;16404;49.902;10.074;2024-02-04T16:39:02;12.70;70.50
29431;DHT22;16404;49.902;10.074;2024-02-04T16:41:49;12.80;70.50
29431;DHT22;16404;49.902;10.074;2024-02-04T16:44:34;12.70;70.20
29431;DHT22;16404;49.902;10.074;2024-02-04T16:47:19;12.70;70.40
29431;DHT22;16404;49.902;10.074;2024-02-04T16:50:04;12.70;70.40
29431;DHT22;16404;49.902;10.074;2024-02-04T16:52:49;12.70;70.50
29431;DHT22;16404;49.902;10.074;2024-02-04T16:55:34;12.80;70.40
29431;DHT22;16404;49.902;10.074;2024-02-04T16:58:18;12.80;70.40
29431;DHT22;16404;49.902;10.074;2024-02-04T17:01:03;12.80;70.40
29431;DHT22;16404;49.902;10.074;2024-02-04T17:03:48;12.80;70.40
29431;DHT22;16404;49.902;10.074;2024-02-04T17:06:35;12.80;70.30
29431;DHT22;16404;49.902;10.074;2024-02-04T17:09:20;12.80;70.90
29431;DHT22;16404;49.902;10.074;2024-02-04T17:12:05;12.70;70.40
29431;DHT22;16404;49.902;10.074;2024-02-04T17:14:50;12.80;70.50
